sensor_id;sensor_type;location;lat;lon;timestamp;P1;durP1;ratioP1;P2;durP2;ratioP2
64851;SDS011;56050;55.558;-4.644;2023-09-18T00:00:43;9.98;;;4.00;;
64851;SDS011;56050;55.558;-4.644;2023-09-18T00:03:09;10.75;;;4.20;;
64851;SDS011;56050;55.558;-4.644;2023-09-18T00:05:34;10.63;;;4.00;;
64851;SDS011;56050;55.558;-4.644;2023-09-18T00:08:00;9.75;;;4.18;;
64851;SDS011;56050;55.558;-4.644;2023-09-18T00:10:27;8.73;;;3.97;;
64851;SDS011;56050;55.558;-4.644;2023-09-18T00:12:55;8.70;;;3.85;;
64851;SDS011;56050;55.558;-4.644;2023-09-18T00:15:21;11.73;;;5.93;;
64851;SDS011;56050;55.558;-4.644;2023-09-18T00:17:47;10.20;;;4.28;;
64851;SDS011;56050;55.558;-4.644;2023-09-18T00:20:12;6.78;;;4.10;;
64851;SDS011;56050;55.558;-4.644;2023-09-18T00:22:38;9.55;;;5.03;;
64851;SDS011;56050;55.558;-4.644;2023-09-18T00:25:04;9.20;;;4.50;;
64851;SDS011;56050;55.558;-4.644;2023-09-18T00:27:30;10.40;;;4.63;;
64851;SDS011;56050;55.558;-4.644;2023-09-18T00:29:57;9.98;;;4.93;;
64851;SDS011;56050;55.558;-4.644;2023-09-18T00:32:23;9.68;;;5.10;;
64851;SDS011;56050;55.558;-4.644;2023-09-18T00:34:48;11.27;;;4.85;;
64851;SDS011;56050;55.558;-4.644;2023-09-18T00:37:14;8.70;;;4.57;;
64851;SDS011;56050;55.558;-4.644;2023-09-18T00:39:39;10.85;;;5.15;;
64851;SDS011;56050;55.558;-4.644;2023-09-18T00:42:06;8.52;;;4.13;;
64851;SDS011;56050;55.558;-4.644;2023-09-18T00:44:31;8.80;;;4.10;;
64851;SDS011;56050;55.558;-4.644;2023-09-18T00:46:57;12.73;;;4.53;;
64851;SDS011;56050;55.558;-4.644;2023-09-18T00:49:22;9.25;;;4.60;;
64851;SDS011;56050;55.558;-4.644;2023-09-18T00:51:49;10.85;;;4.45;;
64851;SDS011;56050;55.558;-4.644;2023-09-18T00:54:16;8.68;;;4.40;;
64851;SDS011;56050;55.558;-4.644;2023-09-18T00:56:45;10.55;;;4.97;;
64851;SDS011;56050;55.558;-4.644;2023-09-18T00:59:13;8.38;;;4.95;;
64851;SDS011;56050;55.558;-4.644;2023-09-18T01:01:39;7.45;;;4.50;;
64851;SDS011;56050;55.558;-4.644;2023-09-18T01:04:07;12.70;;;5.18;;
64851;SDS011;56050;55.558;-4.644;2023-09-18T01:06:32;11.25;;;4.20;;
64851;SDS011;56050;55.558;-4.644;2023-09-18T01:08:58;11.18;;;5.18;;
64851;SDS011;56050;55.558;-4.644;2023-09-18T01:14:11;7.85;;;4.35;;
64851;SDS011;56050;55.558;-4.644;2023-09-18T01:16:47;8.48;;;4.65;;
64851;SDS011;56050;55.558;-4.644;2023-09-18T01:22:02;9.35;;;4.40;;
64851;SDS011;56050;55.558;-4.644;2023-09-18T01:24:27;9.10;;;4.07;;
64851;SDS011;56050;55.558;-4.644;2023-09-18T01:26:53;8.52;;;3.80;;
64851;SDS011;56050;55.558;-4.644;2023-09-18T01:29:18;10.43;;;3.75;;
64851;SDS011;56050;55.558;-4.644;2023-09-18T01:31:45;8.40;;;4.57;;
64851;SDS011;56050;55.558;-4.644;2023-09-18T01:34:13;8.48;;;3.50;;
64851;SDS011;56050;55.558;-4.644;2023-09-18T01:36:42;6.45;;;3.17;;
64851;SDS011;56050;55.558;-4.644;2023-09-18T01:39:10;7.25;;;3.22;;
64851;SDS011;56050;55.558;-4.644;2023-09-18T01:41:37;6.53;;;2.78;;
64851;SDS011;56050;55.558;-4.644;2023-09-18T01:44:03;9.52;;;3.45;;
64851;SDS011;56050;55.558;-4.644;2023-09-18T01:46:30;8.70;;;3.65;;
64851;SDS011;56050;55.558;-4.644;2023-09-18T01:48:57;9.32;;;3.67;;
64851;SDS011;56050;55.558;-4.644;2023-09-18T01:51:24;6.15;;;2.85;;
64851;SDS011;56050;55.558;-4.644;2023-09-18T01:53:49;7.93;;;3.33;;
64851;SDS011;56050;55.558;-4.644;2023-09-18T01:56:15;7.60;;;3.42;;
64851;SDS011;56050;55.558;-4.644;2023-09-18T01:58:41;6.82;;;3.15;;
64851;SDS011;56050;55.558;-4.644;2023-09-18T02:01:06;8.85;;;3.92;;
64851;SDS011;56050;55.558;-4.644;2023-09-18T02:03:31;7.28;;;3.95;;
64851;SDS011;56050;55.558;-4.644;2023-09-18T02:05:57;8.35;;;3.53;;
64851;SDS011;56050;55.558;-4.644;2023-09-18T02:08:22;6.85;;;3.42;;
64851;SDS011;56050;55.558;-4.644;2023-09-18T02:10:48;8.73;;;2.95;;
64851;SDS011;56050;55.558;-4.644;2023-09-18T02:13:13;5.97;;;2.88;;
64851;SDS011;56050;55.558;-4.644;2023-09-18T02:15:39;7.50;;;3.00;;
64851;SDS011;56050;55.558;-4.644;2023-09-18T02:18:04;6.55;;;3.38;;
64851;SDS011;56050;55.558;-4.644;2023-09-18T02:20:30;5.93;;;2.58;;
64851;SDS011;56050;55.558;-4.644;2023-09-18T02:22:55;6.50;;;2.72;;
64851;SDS011;56050;55.558;-4.644;2023-09-18T02:25:21;6.68;;;3.30;;
64851;SDS011;56050;55.558;-4.644;2023-09-18T02:27:46;6.30;;;2.97;;
64851;SDS011;56050;55.558;-4.644;2023-09-18T02:30:12;6.80;;;3.72;;
64851;SDS011;56050;55.558;-4.644;2023-09-18T02:32:38;5.85;;;3.28;;
64851;SDS011;56050;55.558;-4.644;2023-09-18T02:35:04;7.55;;;3.75;;
64851;SDS011;56050;55.558;-4.644;2023-09-18T02:37:32;6.35;;;2.95;;
64851;SDS011;56050;55.558;-4.644;2023-09-18T02:39:57;7.15;;;3.45;;
64851;SDS011;56050;55.558;-4.644;2023-09-18T02:42:23;7.45;;;3.03;;
64851;SDS011;56050;55.558;-4.644;2023-09-18T02:44:48;6.20;;;2.78;;
64851;SDS011;56050;55.558;-4.644;2023-09-18T02:47:14;6.10;;;3.35;;
64851;SDS011;56050;55.558;-4.644;2023-09-18T02:49:39;7.25;;;3.28;;
64851;SDS011;56050;55.558;-4.644;2023-09-18T02:52:05;6.60;;;3.20;;
64851;SDS011;56050;55.558;-4.644;2023-09-18T02:54:30;7.00;;;2.97;;
64851;SDS011;56050;55.558;-4.644;2023-09-18T02:56:56;6.45;;;3.47;;
64851;SDS011;56050;55.558;-4.644;2023-09-18T02:59:21;8.13;;;3.40;;
64851;SDS011;56050;55.558;-4.644;2023-09-18T03:01:47;9.88;;;3.90;;
64851;SDS011;56050;55.558;-4.644;2023-09-18T03:04:12;6.72;;;2.95;;
64851;SDS011;56050;55.558;-4.644;2023-09-18T03:06:38;5.50;;;3.20;;
64851;SDS011;56050;55.558;-4.644;2023-09-18T03:09:04;7.57;;;3.22;;
64851;SDS011;56050;55.558;-4.644;2023-09-18T03:11:30;8.50;;;3.22;;
64851;SDS011;56050;55.558;-4.644;2023-09-18T03:13:56;6.72;;;3.47;;
64851;SDS011;56050;55.558;-4.644;2023-09-18T03:16:21;7.93;;;3.22;;
64851;SDS011;56050;55.558;-4.644;2023-09-18T03:18:46;5.82;;;2.97;;
64851;SDS011;56050;55.558;-4.644;2023-09-18T03:21:12;6.30;;;3.85;;
64851;SDS011;56050;55.558;-4.644;2023-09-18T03:23:37;7.97;;;3.72;;
64851;SDS011;56050;55.558;-4.644;2023-09-18T03:26:03;6.20;;;2.95;;
64851;SDS011;56050;55.558;-4.644;2023-09-18T03:28:28;6.65;;;3.25;;
64851;SDS011;56050;55.558;-4.644;2023-09-18T03:30:54;8.20;;;3.15;;
64851;SDS011;56050;55.558;-4.644;2023-09-18T03:33:20;11.98;;;3.42;;
64851;SDS011;56050;55.558;-4.644;2023-09-18T03:35:46;6.30;;;2.80;;
64851;SDS011;56050;55.558;-4.644;2023-09-18T03:38:14;6.70;;;3.30;;
64851;SDS011;56050;55.558;-4.644;2023-09-18T03:40:40;7.10;;;2.65;;
64851;SDS011;56050;55.558;-4.644;2023-09-18T03:43:06;9.23;;;3.63;;
64851;SDS011;56050;55.558;-4.644;2023-09-18T03:45:32;6.85;;;3.55;;
64851;SDS011;56050;55.558;-4.644;2023-09-18T03:47:57;7.35;;;3.58;;
64851;SDS011;56050;55.558;-4.644;2023-09-18T03:50:23;8.40;;;3.22;;
64851;SDS011;56050;55.558;-4.644;2023-09-18T03:52:48;8.13;;;4.10;;
64851;SDS011;56050;55.558;-4.644;2023-09-18T03:55:14;9.00;;;3.88;;
64851;SDS011;56050;55.558;-4.644;2023-09-18T03:57:39;8.20;;;4.03;;
64851;SDS011;56050;55.558;-4.644;2023-09-18T04:00:06;11.13;;;4.07;;
64851;SDS011;56050;55.558;-4.644;2023-09-18T04:02:33;8.40;;;3.95;;
64851;SDS011;56050;55.558;-4.644;2023-09-18T04:04:59;8.20;;;4.00;;
64851;SDS011;56050;55.558;-4.644;2023-09-18T04:07:24;10.10;;;4.18;;
64851;SDS011;56050;55.558;-4.644;2023-09-18T04:09:50;9.82;;;4.93;;
64851;SDS011;56050;55.558;-4.644;2023-09-18T04:12:15;11.00;;;4.18;;
64851;SDS011;56050;55.558;-4.644;2023-09-18T04:14:41;10.13;;;4.80;;
64851;SDS011;56050;55.558;-4.644;2023-09-18T04:17:06;10.63;;;3.95;;
64851;SDS011;56050;55.558;-4.644;2023-09-18T04:19:32;8.93;;;4.40;;
64851;SDS011;56050;55.558;-4.644;2023-09-18T04:21:57;10.90;;;4.30;;
64851;SDS011;56050;55.558;-4.644;2023-09-18T04:24:23;8.73;;;4.25;;
64851;SDS011;56050;55.558;-4.644;2023-09-18T04:26:48;10.32;;;4.75;;
64851;SDS011;56050;55.558;-4.644;2023-09-18T04:29:16;8.68;;;3.58;;
64851;SDS011;56050;55.558;-4.644;2023-09-18T04:31:41;9.65;;;4.85;;
64851;SDS011;56050;55.558;-4.644;2023-09-18T04:34:07;6.80;;;3.33;;
64851;SDS011;56050;55.558;-4.644;2023-09-18T04:36:32;8.18;;;3.78;;
64851;SDS011;56050;55.558;-4.644;2023-09-18T04:38:58;10.38;;;3.78;;
64851;SDS011;56050;55.558;-4.644;2023-09-18T04:41:23;8.45;;;3.60;;
64851;SDS011;56050;55.558;-4.644;2023-09-18T04:43:49;7.07;;;3.30;;
64851;SDS011;56050;55.558;-4.644;2023-09-18T04:46:16;7.55;;;3.33;;
64851;SDS011;56050;55.558;-4.644;2023-09-18T04:48:41;9.43;;;3.67;;
64851;SDS011;56050;55.558;-4.644;2023-09-18T04:51:06;6.93;;;2.67;;
64851;SDS011;56050;55.558;-4.644;2023-09-18T04:53:32;7.40;;;3.28;;
64851;SDS011;56050;55.558;-4.644;2023-09-18T04:55:58;8.65;;;4.35;;
64851;SDS011;56050;55.558;-4.644;2023-09-18T04:58:23;5.97;;;3.00;;
64851;SDS011;56050;55.558;-4.644;2023-09-18T05:00:55;7.22;;;3.97;;
64851;SDS011;56050;55.558;-4.644;2023-09-18T05:03:22;7.50;;;3.60;;
64851;SDS011;56050;55.558;-4.644;2023-09-18T05:05:48;6.00;;;2.90;;
64851;SDS011;56050;55.558;-4.644;2023-09-18T05:08:13;7.10;;;3.65;;
64851;SDS011;56050;55.558;-4.644;2023-09-18T05:10:39;7.35;;;3.58;;
64851;SDS011;56050;55.558;-4.644;2023-09-18T05:13:04;7.35;;;3.88;;
64851;SDS011;56050;55.558;-4.644;2023-09-18T05:15:30;8.25;;;3.38;;
64851;SDS011;56050;55.558;-4.644;2023-09-18T05:17:56;6.93;;;3.05;;
64851;SDS011;56050;55.558;-4.644;2023-09-18T05:20:23;8.02;;;3.63;;
64851;SDS011;56050;55.558;-4.644;2023-09-18T05:22:50;6.63;;;2.80;;
64851;SDS011;56050;55.558;-4.644;2023-09-18T05:25:18;5.70;;;2.88;;
64851;SDS011;56050;55.558;-4.644;2023-09-18T05:27:44;6.07;;;2.75;;
64851;SDS011;56050;55.558;-4.644;2023-09-18T05:30:10;6.97;;;3.03;;
64851;SDS011;56050;55.558;-4.644;2023-09-18T05:32:38;5.93;;;2.83;;
64851;SDS011;56050;55.558;-4.644;2023-09-18T05:35:03;5.82;;;2.95;;
64851;SDS011;56050;55.558;-4.644;2023-09-18T05:37:31;4.95;;;2.30;;
64851;SDS011;56050;55.558;-4.644;2023-09-18T05:39:59;8.57;;;3.72;;
64851;SDS011;56050;55.558;-4.644;2023-09-18T05:42:25;7.10;;;3.60;;
64851;SDS011;56050;55.558;-4.644;2023-09-18T05:44:51;4.68;;;2.20;;
64851;SDS011;56050;55.558;-4.644;2023-09-18T05:47:16;3.60;;;1.35;;
64851;SDS011;56050;55.558;-4.644;2023-09-18T05:49:42;2.03;;;0.63;;
64851;SDS011;56050;55.558;-4.644;2023-09-18T05:52:07;3.25;;;0.93;;
64851;SDS011;56050;55.558;-4.644;2023-09-18T05:54:33;6.18;;;0.63;;
64851;SDS011;56050;55.558;-4.644;2023-09-18T05:56:58;7.07;;;0.73;;
64851;SDS011;56050;55.558;-4.644;2023-09-18T05:59:24;4.32;;;0.77;;
64851;SDS011;56050;55.558;-4.644;2023-09-18T06:01:49;8.43;;;0.60;;
64851;SDS011;56050;55.558;-4.644;2023-09-18T06:04:14;4.28;;;1.00;;
64851;SDS011;56050;55.558;-4.644;2023-09-18T06:06:42;3.47;;;0.55;;
64851;SDS011;56050;55.558;-4.644;2023-09-18T06:09:07;3.38;;;0.65;;
64851;SDS011;56050;55.558;-4.644;2023-09-18T06:11:33;5.47;;;1.33;;
64851;SDS011;56050;55.558;-4.644;2023-09-18T06:13:58;4.95;;;1.65;;
64851;SDS011;56050;55.558;-4.644;2023-09-18T06:16:24;2.78;;;0.75;;
64851;SDS011;56050;55.558;-4.644;2023-09-18T06:18:50;1.98;;;0.50;;
64851;SDS011;56050;55.558;-4.644;2023-09-18T06:21:15;3.80;;;0.90;;
64851;SDS011;56050;55.558;-4.644;2023-09-18T06:23:41;3.15;;;0.95;;
64851;SDS011;56050;55.558;-4.644;2023-09-18T06:26:06;4.47;;;0.88;;
64851;SDS011;56050;55.558;-4.644;2023-09-18T06:28:32;4.47;;;0.82;;
64851;SDS011;56050;55.558;-4.644;2023-09-18T06:30:57;4.45;;;1.60;;
64851;SDS011;56050;55.558;-4.644;2023-09-18T06:33:22;5.97;;;1.30;;
64851;SDS011;56050;55.558;-4.644;2023-09-18T06:35:48;5.88;;;1.38;;
64851;SDS011;56050;55.558;-4.644;2023-09-18T06:38:13;9.45;;;1.52;;
64851;SDS011;56050;55.558;-4.644;2023-09-18T06:40:40;5.80;;;1.08;;
64851;SDS011;56050;55.558;-4.644;2023-09-18T06:43:06;6.55;;;1.10;;
64851;SDS011;56050;55.558;-4.644;2023-09-18T06:45:31;4.00;;;0.93;;
64851;SDS011;56050;55.558;-4.644;2023-09-18T06:47:58;4.60;;;1.10;;
64851;SDS011;56050;55.558;-4.644;2023-09-18T06:50:25;4.75;;;0.90;;
64851;SDS011;56050;55.558;-4.644;2023-09-18T06:52:51;5.15;;;1.17;;
64851;SDS011;56050;55.558;-4.644;2023-09-18T06:55:16;2.20;;;1.02;;
64851;SDS011;56050;55.558;-4.644;2023-09-18T06:57:42;5.60;;;1.08;;
64851;SDS011;56050;55.558;-4.644;2023-09-18T07:00:08;4.13;;;1.10;;
64851;SDS011;56050;55.558;-4.644;2023-09-18T07:02:33;6.82;;;1.45;;
64851;SDS011;56050;55.558;-4.644;2023-09-18T07:04:59;5.85;;;1.33;;
64851;SDS011;56050;55.558;-4.644;2023-09-18T07:07:25;3.05;;;0.95;;
64851;SDS011;56050;55.558;-4.644;2023-09-18T07:09:51;4.60;;;1.48;;
64851;SDS011;56050;55.558;-4.644;2023-09-18T07:12:17;3.20;;;0.98;;
64851;SDS011;56050;55.558;-4.644;2023-09-18T07:14:46;3.75;;;0.88;;
64851;SDS011;56050;55.558;-4.644;2023-09-18T07:17:12;4.03;;;1.52;;
64851;SDS011;56050;55.558;-4.644;2023-09-18T07:19:37;4.50;;;1.17;;
64851;SDS011;56050;55.558;-4.644;2023-09-18T07:22:03;4.03;;;1.42;;
64851;SDS011;56050;55.558;-4.644;2023-09-18T07:24:29;7.00;;;1.10;;
64851;SDS011;56050;55.558;-4.644;2023-09-18T07:26:54;10.60;;;1.52;;
64851;SDS011;56050;55.558;-4.644;2023-09-18T07:29:20;3.83;;;1.20;;
64851;SDS011;56050;55.558;-4.644;2023-09-18T07:31:46;4.72;;;1.50;;
64851;SDS011;56050;55.558;-4.644;2023-09-18T07:34:12;4.88;;;1.55;;
64851;SDS011;56050;55.558;-4.644;2023-09-18T07:36:38;7.28;;;1.27;;
64851;SDS011;56050;55.558;-4.644;2023-09-18T07:39:05;7.13;;;1.00;;
64851;SDS011;56050;55.558;-4.644;2023-09-18T07:41:31;4.05;;;0.98;;
64851;SDS011;56050;55.558;-4.644;2023-09-18T07:43:57;7.28;;;1.48;;
64851;SDS011;56050;55.558;-4.644;2023-09-18T07:46:24;6.10;;;2.45;;
64851;SDS011;56050;55.558;-4.644;2023-09-18T07:48:50;7.40;;;1.65;;
64851;SDS011;56050;55.558;-4.644;2023-09-18T07:51:15;6.35;;;0.88;;
64851;SDS011;56050;55.558;-4.644;2023-09-18T07:53:44;3.47;;;0.93;;
64851;SDS011;56050;55.558;-4.644;2023-09-18T07:56:09;1.50;;;0.70;;
64851;SDS011;56050;55.558;-4.644;2023-09-18T07:58:35;1.85;;;0.55;;
64851;SDS011;56050;55.558;-4.644;2023-09-18T08:01:03;2.28;;;0.65;;
64851;SDS011;56050;55.558;-4.644;2023-09-18T08:03:34;1.77;;;0.63;;
64851;SDS011;56050;55.558;-4.644;2023-09-18T08:06:00;1.05;;;0.22;;
64851;SDS011;56050;55.558;-4.644;2023-09-18T08:08:26;3.55;;;0.43;;
64851;SDS011;56050;55.558;-4.644;2023-09-18T08:10:52;2.60;;;0.30;;
64851;SDS011;56050;55.558;-4.644;2023-09-18T08:13:18;2.85;;;0.22;;
64851;SDS011;56050;55.558;-4.644;2023-09-18T08:15:45;3.78;;;1.25;;
64851;SDS011;56050;55.558;-4.644;2023-09-18T08:18:11;3.90;;;0.93;;
64851;SDS011;56050;55.558;-4.644;2023-09-18T08:20:41;2.97;;;0.20;;
64851;SDS011;56050;55.558;-4.644;2023-09-18T08:23:08;2.60;;;0.50;;
64851;SDS011;56050;55.558;-4.644;2023-09-18T08:25:37;0.65;;;0.20;;
64851;SDS011;56050;55.558;-4.644;2023-09-18T08:28:03;1.80;;;0.50;;
64851;SDS011;56050;55.558;-4.644;2023-09-18T08:30:29;2.47;;;0.57;;
64851;SDS011;56050;55.558;-4.644;2023-09-18T08:32:55;2.88;;;0.40;;
64851;SDS011;56050;55.558;-4.644;2023-09-18T08:35:21;2.78;;;0.52;;
64851;SDS011;56050;55.558;-4.644;2023-09-18T08:37:47;1.38;;;0.40;;
64851;SDS011;56050;55.558;-4.644;2023-09-18T08:40:13;2.28;;;0.45;;
64851;SDS011;56050;55.558;-4.644;2023-09-18T08:42:40;1.90;;;0.80;;
64851;SDS011;56050;55.558;-4.644;2023-09-18T08:45:10;2.67;;;0.68;;
64851;SDS011;56050;55.558;-4.644;2023-09-18T08:47:39;4.63;;;0.55;;
64851;SDS011;56050;55.558;-4.644;2023-09-18T08:50:06;2.40;;;0.32;;
64851;SDS011;56050;55.558;-4.644;2023-09-18T08:52:35;1.42;;;0.80;;
64851;SDS011;56050;55.558;-4.644;2023-09-18T08:55:03;2.30;;;0.43;;
64851;SDS011;56050;55.558;-4.644;2023-09-18T08:57:29;1.67;;;0.40;;
64851;SDS011;56050;55.558;-4.644;2023-09-18T08:59:56;2.80;;;0.40;;
64851;SDS011;56050;55.558;-4.644;2023-09-18T09:02:26;1.55;;;0.65;;
64851;SDS011;56050;55.558;-4.644;2023-09-18T09:04:51;1.27;;;0.50;;
64851;SDS011;56050;55.558;-4.644;2023-09-18T09:07:17;0.82;;;0.40;;
64851;SDS011;56050;55.558;-4.644;2023-09-18T09:09:42;1.35;;;0.30;;
64851;SDS011;56050;55.558;-4.644;2023-09-18T09:12:08;1.92;;;0.82;;
64851;SDS011;56050;55.558;-4.644;2023-09-18T09:14:34;1.70;;;0.52;;
64851;SDS011;56050;55.558;-4.644;2023-09-18T09:17:00;0.88;;;0.50;;
64851;SDS011;56050;55.558;-4.644;2023-09-18T09:19:29;4.05;;;0.60;;
64851;SDS011;56050;55.558;-4.644;2023-09-18T09:21:57;1.05;;;0.40;;
64851;SDS011;56050;55.558;-4.644;2023-09-18T09:24:47;0.70;;;0.28;;
64851;SDS011;56050;55.558;-4.644;2023-09-18T09:27:11;1.85;;;0.30;;
64851;SDS011;56050;55.558;-4.644;2023-09-18T09:29:39;3.40;;;0.68;;
64851;SDS011;56050;55.558;-4.644;2023-09-18T09:32:15;3.55;;;0.90;;
64851;SDS011;56050;55.558;-4.644;2023-09-18T09:34:42;1.63;;;0.40;;
64851;SDS011;56050;55.558;-4.644;2023-09-18T09:37:08;2.03;;;0.40;;
64851;SDS011;56050;55.558;-4.644;2023-09-18T09:39:34;8.13;;;0.60;;
64851;SDS011;56050;55.558;-4.644;2023-09-18T09:42:00;3.75;;;0.60;;
64851;SDS011;56050;55.558;-4.644;2023-09-18T09:44:29;4.88;;;0.43;;
64851;SDS011;56050;55.558;-4.644;2023-09-18T09:46:57;1.90;;;0.55;;
64851;SDS011;56050;55.558;-4.644;2023-09-18T09:49:24;3.83;;;0.88;;
64851;SDS011;56050;55.558;-4.644;2023-09-18T09:51:52;2.50;;;1.15;;
64851;SDS011;56050;55.558;-4.644;2023-09-18T09:54:40;6.22;;;1.25;;
64851;SDS011;56050;55.558;-4.644;2023-09-18T09:57:06;4.07;;;1.42;;
64851;SDS011;56050;55.558;-4.644;2023-09-18T09:59:31;8.32;;;0.80;;
64851;SDS011;56050;55.558;-4.644;2023-09-18T10:02:00;4.30;;;0.57;;
64851;SDS011;56050;55.558;-4.644;2023-09-18T10:04:26;6.47;;;0.82;;
64851;SDS011;56050;55.558;-4.644;2023-09-18T10:06:57;4.68;;;1.00;;
64851;SDS011;56050;55.558;-4.644;2023-09-18T10:09:28;6.80;;;0.90;;
64851;SDS011;56050;55.558;-4.644;2023-09-18T10:11:54;3.97;;;0.73;;
64851;SDS011;56050;55.558;-4.644;2023-09-18T10:14:30;4.60;;;0.98;;
64851;SDS011;56050;55.558;-4.644;2023-09-18T10:16:59;5.35;;;0.93;;
64851;SDS011;56050;55.558;-4.644;2023-09-18T10:19:40;6.45;;;1.05;;
64851;SDS011;56050;55.558;-4.644;2023-09-18T10:22:40;3.30;;;0.55;;
64851;SDS011;56050;55.558;-4.644;2023-09-18T10:25:15;3.78;;;0.88;;
64851;SDS011;56050;55.558;-4.644;2023-09-18T10:27:45;8.50;;;0.70;;
64851;SDS011;56050;55.558;-4.644;2023-09-18T10:30:14;5.88;;;0.60;;
64851;SDS011;56050;55.558;-4.644;2023-09-18T10:32:44;6.80;;;0.63;;
64851;SDS011;56050;55.558;-4.644;2023-09-18T10:35:13;5.07;;;1.58;;
64851;SDS011;56050;55.558;-4.644;2023-09-18T10:37:41;5.70;;;1.15;;
64851;SDS011;56050;55.558;-4.644;2023-09-18T10:40:08;5.63;;;0.85;;
64851;SDS011;56050;55.558;-4.644;2023-09-18T10:42:35;7.25;;;0.93;;
64851;SDS011;56050;55.558;-4.644;2023-09-18T10:45:04;7.20;;;0.80;;
64851;SDS011;56050;55.558;-4.644;2023-09-18T10:47:30;8.05;;;1.92;;
64851;SDS011;56050;55.558;-4.644;2023-09-18T10:49:57;5.78;;;0.65;;
64851;SDS011;56050;55.558;-4.644;2023-09-18T10:52:23;4.72;;;0.82;;
64851;SDS011;56050;55.558;-4.644;2023-09-18T10:54:48;7.95;;;1.38;;
64851;SDS011;56050;55.558;-4.644;2023-09-18T10:57:14;4.38;;;0.82;;
64851;SDS011;56050;55.558;-4.644;2023-09-18T10:59:46;4.53;;;1.15;;
64851;SDS011;56050;55.558;-4.644;2023-09-18T11:02:15;4.93;;;0.80;;
64851;SDS011;56050;55.558;-4.644;2023-09-18T11:04:42;4.50;;;0.65;;
64851;SDS011;56050;55.558;-4.644;2023-09-18T11:07:09;7.90;;;0.80;;
64851;SDS011;56050;55.558;-4.644;2023-09-18T11:09:44;5.82;;;0.85;;
64851;SDS011;56050;55.558;-4.644;2023-09-18T11:12:11;5.57;;;0.65;;
64851;SDS011;56050;55.558;-4.644;2023-09-18T11:14:49;3.05;;;1.05;;
64851;SDS011;56050;55.558;-4.644;2023-09-18T11:22:38;10.73;;;1.20;;
64851;SDS011;56050;55.558;-4.644;2023-09-18T11:28:13;7.32;;;1.02;;
64851;SDS011;56050;55.558;-4.644;2023-09-18T11:30:53;5.05;;;1.58;;
64851;SDS011;56050;55.558;-4.644;2023-09-18T11:36:03;6.30;;;0.63;;
64851;SDS011;56050;55.558;-4.644;2023-09-18T11:39:15;8.68;;;1.17;;
64851;SDS011;56050;55.558;-4.644;2023-09-18T11:41:23;6.50;;;0.98;;
64851;SDS011;56050;55.558;-4.644;2023-09-18T11:44:39;3.65;;;0.50;;
64851;SDS011;56050;55.558;-4.644;2023-09-18T11:46:39;7.20;;;0.75;;
64851;SDS011;56050;55.558;-4.644;2023-09-18T11:49:09;8.93;;;0.77;;
64851;SDS011;56050;55.558;-4.644;2023-09-18T11:51:36;5.00;;;0.75;;
64851;SDS011;56050;55.558;-4.644;2023-09-18T11:54:01;6.53;;;0.70;;
64851;SDS011;56050;55.558;-4.644;2023-09-18T11:56:37;6.30;;;0.75;;
64851;SDS011;56050;55.558;-4.644;2023-09-18T11:59:05;2.72;;;0.63;;
64851;SDS011;56050;55.558;-4.644;2023-09-18T12:01:31;5.57;;;0.88;;
64851;SDS011;56050;55.558;-4.644;2023-09-18T12:04:01;6.53;;;1.38;;
64851;SDS011;56050;55.558;-4.644;2023-09-18T12:06:30;1.85;;;0.77;;
64851;SDS011;56050;55.558;-4.644;2023-09-18T12:08:56;7.20;;;0.85;;
64851;SDS011;56050;55.558;-4.644;2023-09-18T12:11:21;4.93;;;0.98;;
64851;SDS011;56050;55.558;-4.644;2023-09-18T12:13:50;6.18;;;0.85;;
64851;SDS011;56050;55.558;-4.644;2023-09-18T12:16:16;5.88;;;1.08;;
64851;SDS011;56050;55.558;-4.644;2023-09-18T12:18:48;3.33;;;0.50;;
64851;SDS011;56050;55.558;-4.644;2023-09-18T12:21:14;4.75;;;1.05;;
64851;SDS011;56050;55.558;-4.644;2023-09-18T12:23:43;4.50;;;0.60;;
64851;SDS011;56050;55.558;-4.644;2023-09-18T12:26:13;3.42;;;0.32;;
64851;SDS011;56050;55.558;-4.644;2023-09-18T12:28:40;6.05;;;1.33;;
64851;SDS011;56050;55.558;-4.644;2023-09-18T12:31:09;4.97;;;1.05;;
64851;SDS011;56050;55.558;-4.644;2023-09-18T12:33:39;2.65;;;0.60;;
64851;SDS011;56050;55.558;-4.644;2023-09-18T12:36:07;3.05;;;0.93;;
64851;SDS011;56050;55.558;-4.644;2023-09-18T12:38:33;3.88;;;0.52;;
64851;SDS011;56050;55.558;-4.644;2023-09-18T12:40:59;4.10;;;0.60;;
64851;SDS011;56050;55.558;-4.644;2023-09-18T12:43:40;2.00;;;0.30;;
64851;SDS011;56050;55.558;-4.644;2023-09-18T12:46:06;2.33;;;0.80;;
64851;SDS011;56050;55.558;-4.644;2023-09-18T12:48:37;1.60;;;0.63;;
64851;SDS011;56050;55.558;-4.644;2023-09-18T12:51:04;5.05;;;1.15;;
64851;SDS011;56050;55.558;-4.644;2023-09-18T12:53:30;1.55;;;0.77;;
64851;SDS011;56050;55.558;-4.644;2023-09-18T12:56:06;1.85;;;0.40;;
64851;SDS011;56050;55.558;-4.644;2023-09-18T12:58:33;5.15;;;1.05;;
64851;SDS011;56050;55.558;-4.644;2023-09-18T13:01:03;2.97;;;0.90;;
64851;SDS011;56050;55.558;-4.644;2023-09-18T13:03:33;6.75;;;0.63;;
64851;SDS011;56050;55.558;-4.644;2023-09-18T13:06:14;2.97;;;0.77;;
64851;SDS011;56050;55.558;-4.644;2023-09-18T13:08:45;2.13;;;0.35;;
64851;SDS011;56050;55.558;-4.644;2023-09-18T13:11:11;3.75;;;0.75;;
64851;SDS011;56050;55.558;-4.644;2023-09-18T13:13:39;4.20;;;0.47;;
64851;SDS011;56050;55.558;-4.644;2023-09-18T13:16:06;3.03;;;1.20;;
64851;SDS011;56050;55.558;-4.644;2023-09-18T13:18:34;2.67;;;0.68;;
64851;SDS011;56050;55.558;-4.644;2023-09-18T13:20:59;2.95;;;0.85;;
64851;SDS011;56050;55.558;-4.644;2023-09-18T13:23:28;3.15;;;1.77;;
64851;SDS011;56050;55.558;-4.644;2023-09-18T13:25:58;3.28;;;1.35;;
64851;SDS011;56050;55.558;-4.644;2023-09-18T13:28:24;2.63;;;0.85;;
64851;SDS011;56050;55.558;-4.644;2023-09-18T13:30:50;4.55;;;1.98;;
64851;SDS011;56050;55.558;-4.644;2023-09-18T13:33:16;8.85;;;2.10;;
64851;SDS011;56050;55.558;-4.644;2023-09-18T13:35:43;20.48;;;5.78;;
64851;SDS011;56050;55.558;-4.644;2023-09-18T13:38:10;31.30;;;10.52;;
64851;SDS011;56050;55.558;-4.644;2023-09-18T13:40:36;40.38;;;12.55;;
64851;SDS011;56050;55.558;-4.644;2023-09-18T13:43:05;19.55;;;6.20;;
64851;SDS011;56050;55.558;-4.644;2023-09-18T13:45:33;9.38;;;3.13;;
64851;SDS011;56050;55.558;-4.644;2023-09-18T13:48:05;12.10;;;2.90;;
64851;SDS011;56050;55.558;-4.644;2023-09-18T13:50:31;18.55;;;4.50;;
64851;SDS011;56050;55.558;-4.644;2023-09-18T13:52:58;5.35;;;1.08;;
64851;SDS011;56050;55.558;-4.644;2023-09-18T13:55:24;8.35;;;0.73;;
64851;SDS011;56050;55.558;-4.644;2023-09-18T13:57:50;12.13;;;3.05;;
64851;SDS011;56050;55.558;-4.644;2023-09-18T14:00:16;11.32;;;3.15;;
64851;SDS011;56050;55.558;-4.644;2023-09-18T14:02:42;7.05;;;2.00;;
64851;SDS011;56050;55.558;-4.644;2023-09-18T14:05:08;3.58;;;1.00;;
64851;SDS011;56050;55.558;-4.644;2023-09-18T14:07:34;5.32;;;1.08;;
64851;SDS011;56050;55.558;-4.644;2023-09-18T14:10:03;3.42;;;1.13;;
64851;SDS011;56050;55.558;-4.644;2023-09-18T14:12:32;3.63;;;0.73;;
64851;SDS011;56050;55.558;-4.644;2023-09-18T14:14:57;4.72;;;0.93;;
64851;SDS011;56050;55.558;-4.644;2023-09-18T14:17:22;10.60;;;1.83;;
64851;SDS011;56050;55.558;-4.644;2023-09-18T14:19:48;6.78;;;1.00;;
64851;SDS011;56050;55.558;-4.644;2023-09-18T14:22:13;5.50;;;0.60;;
64851;SDS011;56050;55.558;-4.644;2023-09-18T14:24:39;11.57;;;3.58;;
64851;SDS011;56050;55.558;-4.644;2023-09-18T14:27:05;4.55;;;0.60;;
64851;SDS011;56050;55.558;-4.644;2023-09-18T14:29:32;3.58;;;1.15;;
64851;SDS011;56050;55.558;-4.644;2023-09-18T14:31:59;3.38;;;1.20;;
64851;SDS011;56050;55.558;-4.644;2023-09-18T14:34:25;10.38;;;2.25;;
64851;SDS011;56050;55.558;-4.644;2023-09-18T14:36:50;6.88;;;1.15;;
64851;SDS011;56050;55.558;-4.644;2023-09-18T14:39:16;4.47;;;0.85;;
64851;SDS011;56050;55.558;-4.644;2023-09-18T14:41:41;4.50;;;0.73;;
64851;SDS011;56050;55.558;-4.644;2023-09-18T14:44:07;6.28;;;1.10;;
64851;SDS011;56050;55.558;-4.644;2023-09-18T14:46:37;5.47;;;1.38;;
64851;SDS011;56050;55.558;-4.644;2023-09-18T14:49:03;6.18;;;1.58;;